Time;durP1;ratioP1;P1;durP2;ratioP2;P2;SDS_P1;SDS_P2;PMS_P1;PMS_P2;Temp;Humidity;BMP_temperature;BMP_pressure;BME280_temperature;BME280_humidity;BME280_pressure;Samples;Min_cycle;Max_cycle;Signal;HPM_P1;HPM_P2
2021/12/27 00:01:44;;;;;;;17.87;13.22;;;6.00;99.90;;;;;;1906253;75;21113;-77
2021/12/27 00:04:36;;;;;;;21.75;13.18;;;6.00;99.90;;;;;;1901239;75;21106;-78
2021/12/27 00:07:27;;;;;;;20.15;13.78;;;5.90;99.90;;;;;;1917092;75;21170;-76
2021/12/27 00:10:20;;;;;;;23.77;14.65;;;6.00;99.90;;;;;;1894837;75;21120;-79
2021/12/27 00:13:11;;;;;;;23.15;15.78;;;5.90;99.90;;;;;;1898679;74;21132;-78
2021/12/27 00:16:03;;;;;;;21.02;14.60;;;5.90;99.90;;;;;;1908215;74;21208;-77
2021/12/27 00:18:55;;;;;;;18.70;13.62;;;5.90;99.90;;;;;;1907010;74;21059;-77
2021/12/27 00:21:46;;;;;;;19.17;13.93;;;5.90;99.90;;;;;;1904247;74;21055;-78
2021/12/27 00:24:38;;;;;;;18.90;13.60;;;5.80;99.90;;;;;;1904436;74;21097;-78
2021/12/27 00:27:29;;;;;;;17.57;12.20;;;5.80;99.90;;;;;;1907371;74;21058;-78
2021/12/27 00:30:20;;;;;;;18.80;13.20;;;5.70;99.90;;;;;;1907169;74;21055;-77
2021/12/27 00:33:12;;;;;;;17.70;12.98;;;5.80;99.90;;;;;;1926562;74;21113;-77
2021/12/27 00:36:03;;;;;;;16.60;12.43;;;5.70;99.90;;;;;;1900128;74;21189;-77
2021/12/27 00:38:54;;;;;;;15.03;11.03;;;5.70;99.90;;;;;;1914839;74;21051;-77
2021/12/27 00:41:46;;;;;;;15.08;10.93;;;5.70;99.90;;;;;;1907330;74;21110;-77
2021/12/27 00:44:37;;;;;;;13.98;10.78;;;5.70;99.90;;;;;;1893856;74;21152;-77
2021/12/27 00:47:29;;;;;;;14.47;10.78;;;5.60;99.90;;;;;;1915505;74;21127;-77
2021/12/27 00:50:20;;;;;;;12.35;9.53;;;5.60;99.90;;;;;;1915678;74;21149;-77
2021/12/27 00:53:13;;;;;;;12.78;10.08;;;5.60;99.90;;;;;;1893645;76;21054;-77
2021/12/27 00:56:05;;;;;;;12.78;9.68;;;5.60;99.90;;;;;;1905854;74;21545;-77
2021/12/27 00:58:56;;;;;;;12.68;10.03;;;5.60;99.90;;;;;;1926495;74;21097;-77
2021/12/27 01:01:48;;;;;;;15.20;10.93;;;5.60;99.90;;;;;;1904889;74;21066;-77
2021/12/27 01:04:42;;;;;;;13.65;9.90;;;5.60;99.90;;;;;;1926814;74;21106;-78
2021/12/27 01:07:52;;;;;;;13.68;10.45;;;5.70;99.90;;;;;;1907981;74;21051;-78
2021/12/27 01:14:04;;;;;;;12.60;10.32;;;5.60;99.90;;;;;;1871044;74;21160;-77
2021/12/27 01:16:56;;;;;;;12.23;10.08;;;5.70;99.90;;;;;;1906873;75;21047;-77
2021/12/27 01:19:47;;;;;;;13.50;10.48;;;5.70;99.90;;;;;;1898626;75;21157;-77
2021/12/27 01:22:40;;;;;;;12.15;10.23;;;5.70;99.90;;;;;;1883309;75;21063;-77
2021/12/27 01:25:32;;;;;;;12.23;9.75;;;5.70;99.90;;;;;;1888262;75;21085;-76
2021/12/27 01:28:24;;;;;;;13.38;10.53;;;5.70;99.90;;;;;;1872319;75;21140;-80
2021/12/27 01:31:17;;;;;;;11.10;9.70;;;5.70;99.90;;;;;;1893902;75;21221;-77
2021/12/27 01:34:09;;;;;;;12.28;9.75;;;5.60;99.90;;;;;;1894391;75;21573;-78
2021/12/27 01:37:00;;;;;;;11.63;9.40;;;5.60;99.90;;;;;;1889315;75;21209;-78
2021/12/27 01:39:52;;;;;;;11.28;9.63;;;5.50;99.90;;;;;;1896100;75;21173;-77
2021/12/27 01:43:03;;;;;;;12.37;9.20;;;5.30;99.90;;;;;;1916951;75;21059;-77
2021/12/27 01:45:57;;;;;;;12.37;9.60;;;5.20;99.90;;;;;;1882948;75;21105;-77
2021/12/27 01:48:55;;;;;;;11.30;9.33;;;5.20;99.90;;;;;;1915402;75;21078;-77
2021/12/27 01:51:45;;;;;;;11.15;9.05;;;5.10;99.90;;;;;;1903283;75;21084;-77
2021/12/27 01:54:38;;;;;;;13.58;9.73;;;5.10;99.90;;;;;;1890016;75;21638;-77
2021/12/27 01:57:30;;;;;;;10.60;8.18;;;5.10;99.90;;;;;;1894007;75;21153;-77
2021/12/27 02:00:23;;;;;;;10.50;8.93;;;5.10;99.90;;;;;;1906308;75;21103;-77
2021/12/27 02:03:16;;;;;;;10.32;8.90;;;5.20;99.90;;;;;;1884059;75;21175;-77
2021/12/27 02:06:09;;;;;;;11.08;8.23;;;5.20;99.90;;;;;;1901222;75;21040;-77
2021/12/27 02:09:00;;;;;;;9.48;7.78;;;5.10;99.90;;;;;;1884054;75;21073;-77
2021/12/27 02:11:52;;;;;;;10.10;7.80;;;5.00;99.90;;;;;;1904694;75;21052;-79
2021/12/27 02:14:43;;;;;;;10.98;8.60;;;5.00;99.90;;;;;;1899807;74;21086;-77
2021/12/27 02:17:35;;;;;;;11.12;8.63;;;5.00;99.90;;;;;;1914758;74;21087;-77
2021/12/27 02:20:29;;;;;;;13.03;9.43;;;4.90;99.90;;;;;;1913835;74;21207;-77
2021/12/27 02:23:22;;;;;;;11.70;9.35;;;4.90;99.90;;;;;;1924110;74;21155;-77
2021/12/27 02:26:13;;;;;;;10.53;8.90;;;4.90;99.90;;;;;;1922365;74;21145;-77
2021/12/27 02:29:09;;;;;;;12.03;9.48;;;4.90;99.90;;;;;;1900094;75;21077;-77
2021/12/27 02:31:59;;;;;;;12.45;9.33;;;4.90;99.90;;;;;;1916218;74;21163;-77
2021/12/27 02:34:50;;;;;;;11.22;8.70;;;5.00;99.90;;;;;;1923075;74;21070;-77
2021/12/27 02:37:41;;;;;;;11.15;8.50;;;5.00;99.90;;;;;;1922417;74;21145;-77
2021/12/27 02:40:34;;;;;;;11.55;8.95;;;5.10;99.90;;;;;;1921783;74;21055;-77
2021/12/27 02:43:27;;;;;;;9.20;8.05;;;5.10;99.90;;;;;;1917097;74;21100;-78
2021/12/27 02:46:18;;;;;;;11.05;7.85;;;5.10;99.90;;;;;;1922209;74;21627;-79
2021/12/27 02:49:10;;;;;;;11.12;8.03;;;5.00;99.90;;;;;;1910705;74;21128;-78
2021/12/27 02:52:01;;;;;;;8.30;6.97;;;5.10;99.90;;;;;;1932307;74;21143;-78
2021/12/27 02:54:53;;;;;;;9.30;7.17;;;5.00;99.90;;;;;;1917583;74;21054;-77
2021/12/27 02:57:46;;;;;;;7.58;6.78;;;4.90;99.90;;;;;;1911922;74;21098;-77
2021/12/27 03:00:41;;;;;;;8.28;7.05;;;4.80;99.90;;;;;;1925596;74;21196;-77
2021/12/27 03:03:33;;;;;;;11.00;8.35;;;4.80;99.90;;;;;;1922174;74;21210;-78
2021/12/27 03:06:25;;;;;;;11.53;8.30;;;4.70;99.90;;;;;;1920367;74;21083;-78
2021/12/27 03:09:16;;;;;;;12.20;8.70;;;4.60;99.90;;;;;;1914996;74;21061;-78
2021/12/27 03:12:11;;;;;;;11.75;8.25;;;4.60;99.90;;;;;;1932746;74;21058;-77
2021/12/27 03:15:02;;;;;;;13.18;8.78;;;4.50;99.90;;;;;;1927036;74;21127;-77
2021/12/27 03:17:55;;;;;;;10.03;7.80;;;4.50;99.90;;;;;;1884434;75;21058;-77
2021/12/27 03:20:47;;;;;;;13.18;8.43;;;4.40;99.90;;;;;;1899599;75;21059;-77
2021/12/27 03:23:41;;;;;;;9.65;7.75;;;4.40;99.90;;;;;;1895755;75;21167;-77
2021/12/27 03:26:33;;;;;;;9.95;7.80;;;4.40;99.90;;;;;;1909814;75;21055;-77
2021/12/27 03:29:24;;;;;;;11.05;7.72;;;4.40;99.90;;;;;;1906261;75;21097;-77
2021/12/27 03:32:17;;;;;;;13.30;8.30;;;4.30;99.90;;;;;;1903053;75;21051;-77
2021/12/27 03:35:14;;;;;;;10.72;7.45;;;4.40;99.90;;;;;;1898273;75;21114;-77
2021/12/27 03:38:08;;;;;;;10.15;7.65;;;4.40;99.90;;;;;;1906910;75;21102;-77
2021/12/27 03:40:59;;;;;;;10.23;8.23;;;4.40;99.90;;;;;;1906547;75;21106;-77
2021/12/27 03:43:51;;;;;;;10.28;7.65;;;4.50;99.90;;;;;;1906412;75;21106;-78
2021/12/27 03:46:42;;;;;;;9.85;7.28;;;4.50;99.90;;;;;;1900228;75;21107;-78
2021/12/27 03:49:33;;;;;;;9.63;7.83;;;4.50;99.90;;;;;;1896297;75;21044;-78
2021/12/27 03:52:25;;;;;;;10.03;7.20;;;4.60;99.90;;;;;;1910143;75;21054;-77
2021/12/27 03:55:17;;;;;;;9.73;7.12;;;4.60;99.90;;;;;;1906233;75;21048;-77
2021/12/27 03:58:10;;;;;;;10.25;6.37;;;4.60;99.90;;;;;;1902247;75;21048;-78
2021/12/27 04:01:14;;;;;;;8.55;6.72;;;4.60;99.90;;;;;;1897556;75;21094;-77
2021/12/27 04:03:57;;;;;;;8.23;6.72;;;4.60;99.90;;;;;;1908527;75;21062;-77
2021/12/27 04:06:48;;;;;;;8.65;6.75;;;4.60;99.90;;;;;;1906068;75;21119;-77
2021/12/27 04:09:40;;;;;;;8.78;6.67;;;4.60;99.90;;;;;;1904797;75;21052;-77
2021/12/27 04:12:32;;;;;;;8.13;6.25;;;4.60;99.90;;;;;;1901389;75;21099;-77
2021/12/27 04:15:24;;;;;;;7.67;6.75;;;4.60;99.90;;;;;;1894700;75;21112;-77
2021/12/27 04:18:16;;;;;;;10.08;6.30;;;4.50;99.90;;;;;;1911626;74;21254;-77
2021/12/27 04:21:08;;;;;;;8.35;6.47;;;4.60;99.90;;;;;;1905949;75;21102;-77
2021/12/27 04:24:00;;;;;;;7.60;5.75;;;4.60;99.90;;;;;;1901909;75;21109;-77
2021/12/27 04:26:52;;;;;;;7.78;5.92;;;4.60;99.90;;;;;;1896814;75;21165;-77
2021/12/27 04:29:44;;;;;;;7.45;5.70;;;4.60;99.90;;;;;;1909844;75;21121;-77
2021/12/27 04:32:36;;;;;;;7.30;5.87;;;4.60;99.90;;;;;;1886623;75;21058;-77
2021/12/27 04:35:27;;;;;;;7.10;5.62;;;4.60;99.90;;;;;;1916805;75;21113;-77
2021/12/27 04:38:18;;;;;;;7.92;6.08;;;4.70;99.90;;;;;;1897012;75;21047;-77
2021/12/27 04:41:11;;;;;;;7.53;5.67;;;4.70;99.90;;;;;;1909400;75;21150;-77
2021/12/27 04:44:02;;;;;;;6.87;5.72;;;4.70;99.90;;;;;;1905796;75;21107;-77
2021/12/27 04:46:53;;;;;;;7.83;6.08;;;4.70;99.90;;;;;;1883925;76;21145;-77
2021/12/27 04:49:46;;;;;;;6.10;5.50;;;4.80;99.90;;;;;;1898998;75;21125;-77
2021/12/27 04:52:38;;;;;;;8.20;6.35;;;4.70;99.90;;;;;;1917087;75;21059;-77
2021/12/27 04:55:30;;;;;;;7.30;6.15;;;4.80;99.90;;;;;;1894834;75;21114;-77
2021/12/27 04:58:32;;;;;;;7.03;6.00;;;4.80;99.90;;;;;;1896177;75;21171;-77
2021/12/27 05:01:23;;;;;;;7.37;6.00;;;4.80;99.90;;;;;;1846035;77;21174;-78
2021/12/27 05:04:14;;;;;;;7.75;5.92;;;4.70;99.90;;;;;;1838504;77;21069;-77
2021/12/27 05:07:06;;;;;;;7.20;6.03;;;4.70;99.90;;;;;;1845230;77;21151;-77
2021/12/27 05:09:58;;;;;;;6.53;5.70;;;4.70;99.90;;;;;;1845708;77;21096;-77
2021/12/27 05:12:51;;;;;;;6.35;5.28;;;4.70;99.90;;;;;;1846744;77;21165;-77
2021/12/27 05:15:42;;;;;;;5.67;4.97;;;4.80;99.90;;;;;;1837027;77;21074;-77
2021/12/27 05:18:35;;;;;;;6.95;5.80;;;4.80;99.90;;;;;;1844929;77;21198;-77
2021/12/27 05:21:26;;;;;;;7.70;5.05;;;4.80;99.90;;;;;;1844803;77;21444;-77
2021/12/27 05:24:18;;;;;;;6.37;5.55;;;4.90;99.90;;;;;;1854178;77;21225;-77
2021/12/27 05:27:10;;;;;;;7.05;5.58;;;4.90;99.90;;;;;;1829997;77;21135;-77
2021/12/27 05:30:01;;;;;;;7.03;6.03;;;4.90;99.90;;;;;;1851235;77;21075;-77
2021/12/27 05:32:53;;;;;;;7.90;6.05;;;4.90;99.90;;;;;;1850837;77;21246;-77
2021/12/27 05:35:45;;;;;;;6.53;5.60;;;4.90;99.90;;;;;;1851167;77;21116;-77
2021/12/27 05:38:36;;;;;;;7.67;5.87;;;4.90;99.90;;;;;;1848593;77;21076;-78
2021/12/27 05:41:27;;;;;;;8.50;6.42;;;4.90;99.90;;;;;;1835434;77;21125;-77
2021/12/27 05:44:20;;;;;;;6.90;6.00;;;5.00;99.90;;;;;;1844899;77;21150;-78
2021/12/27 05:47:13;;;;;;;7.70;5.67;;;5.00;99.90;;;;;;1845856;77;21091;-77
2021/12/27 05:50:07;;;;;;;10.23;6.22;;;5.00;99.90;;;;;;1847236;77;21095;-78
2021/12/27 05:52:59;;;;;;;7.78;6.42;;;4.90;99.90;;;;;;1837430;77;21209;-78
2021/12/27 05:55:51;;;;;;;7.85;5.80;;;4.90;99.90;;;;;;1834906;77;21152;-79
2021/12/27 05:58:44;;;;;;;8.90;6.33;;;5.00;99.90;;;;;;1846088;77;21217;-78
2021/12/27 06:01:35;;;;;;;6.67;5.80;;;4.90;99.90;;;;;;1835154;77;21148;-78
2021/12/27 06:04:27;;;;;;;7.30;5.85;;;5.00;99.90;;;;;;1806675;79;21246;-77
2021/12/27 06:07:19;;;;;;;7.85;6.15;;;4.90;99.90;;;;;;1848018;78;21105;-77
2021/12/27 06:10:11;;;;;;;7.85;6.03;;;4.90;99.90;;;;;;1838467;78;21188;-77
2021/12/27 06:13:03;;;;;;;8.80;6.03;;;4.90;99.90;;;;;;1847407;78;21128;-77
2021/12/27 06:15:54;;;;;;;7.28;5.97;;;4.90;99.90;;;;;;1841013;78;21081;-77
2021/12/27 06:18:45;;;;;;;7.78;6.40;;;4.80;99.90;;;;;;1832437;78;21173;-77
2021/12/27 06:21:37;;;;;;;8.20;6.63;;;4.70;99.90;;;;;;1818811;78;21125;-77
2021/12/27 06:24:28;;;;;;;7.15;5.62;;;4.70;99.90;;;;;;1808677;79;21154;-77
2021/12/27 06:27:20;;;;;;;7.15;5.70;;;4.70;99.90;;;;;;1813658;78;21094;-77
2021/12/27 06:30:13;;;;;;;7.95;5.72;;;4.70;99.90;;;;;;1797946;79;21093;-77
2021/12/27 06:33:06;;;;;;;7.20;5.45;;;4.70;99.90;;;;;;1848025;78;21536;-77
2021/12/27 06:35:58;;;;;;;7.78;5.78;;;4.70;99.90;;;;;;1834756;78;21182;-79
2021/12/27 06:38:50;;;;;;;8.90;6.33;;;4.70;99.90;;;;;;1819638;78;21097;-78
2021/12/27 06:41:43;;;;;;;7.35;5.85;;;4.80;99.90;;;;;;1773892;81;21117;-77
2021/12/27 06:44:34;;;;;;;8.43;6.10;;;4.70;99.90;;;;;;1783320;79;21561;-76
2021/12/27 06:47:26;;;;;;;8.55;6.30;;;4.70;99.90;;;;;;1793550;80;21154;-79
2021/12/27 06:50:17;;;;;;;7.95;6.65;;;4.70;99.90;;;;;;1819106;78;21087;-77
2021/12/27 06:53:10;;;;;;;7.95;6.37;;;4.70;99.90;;;;;;1802252;79;21096;-78
2021/12/27 06:56:05;;;;;;;7.78;5.35;;;4.80;99.90;;;;;;1782641;80;21488;-78
2021/12/27 06:58:57;;;;;;;6.83;5.50;;;4.80;99.90;;;;;;1838535;78;21139;-77
2021/12/27 07:01:48;;;;;;;7.17;5.55;;;4.70;99.90;;;;;;1800726;79;21138;-77
2021/12/27 07:04:40;;;;;;;7.22;6.25;;;4.80;99.90;;;;;;1796632;80;21089;-77
2021/12/27 07:07:32;;;;;;;6.45;5.50;;;4.70;99.90;;;;;;1804995;79;21120;-77
2021/12/27 07:10:24;;;;;;;7.40;5.15;;;4.80;99.90;;;;;;1811860;79;21135;-77
2021/12/27 07:13:15;;;;;;;6.92;5.05;;;4.80;99.90;;;;;;1822737;79;21183;-76
2021/12/27 07:16:07;;;;;;;7.87;5.58;;;4.80;99.90;;;;;;1824053;79;21179;-76
2021/12/27 07:19:00;;;;;;;7.85;6.12;;;4.80;99.90;;;;;;1809633;78;21183;-76
2021/12/27 07:21:51;;;;;;;7.12;5.85;;;4.80;99.90;;;;;;1815596;78;21229;-76
2021/12/27 07:24:44;;;;;;;7.53;6.05;;;4.80;99.90;;;;;;1797647;80;21214;-75
2021/12/27 07:27:36;;;;;;;7.30;5.28;;;4.80;99.90;;;;;;1792955;80;21140;-75
2021/12/27 07:30:29;;;;;;;6.42;5.12;;;4.80;99.90;;;;;;1781958;80;21132;-77
2021/12/27 07:33:21;;;;;;;6.70;5.00;;;4.80;99.90;;;;;;1770486;81;21393;-77
2021/12/27 07:36:13;;;;;;;5.78;5.03;;;4.80;99.90;;;;;;1791357;80;21171;-76
2021/12/27 07:39:06;;;;;;;6.22;5.28;;;4.80;99.90;;;;;;1815426;79;21136;-76
2021/12/27 07:41:57;;;;;;;5.85;5.00;;;4.90;99.90;;;;;;1796030;80;21170;-76
2021/12/27 07:44:48;;;;;;;5.72;4.83;;;4.90;99.90;;;;;;1779702;80;21147;-75
2021/12/27 07:47:40;;;;;;;6.15;5.03;;;5.00;99.90;;;;;;1790158;80;21083;-75
2021/12/27 07:50:32;;;;;;;7.22;5.47;;;5.00;99.90;;;;;;1798710;80;21128;-76
2021/12/27 07:53:23;;;;;;;6.33;4.97;;;5.00;99.90;;;;;;1814464;79;21082;-76
2021/12/27 07:56:15;;;;;;;6.90;5.25;;;5.10;99.90;;;;;;1802055;79;21235;-76
2021/12/27 07:59:07;;;;;;;6.30;5.20;;;5.10;99.90;;;;;;1816650;78;21156;-76
2021/12/27 08:01:58;;;;;;;7.17;5.20;;;5.10;99.90;;;;;;1823680;78;21908;-76
2021/12/27 08:04:50;;;;;;;6.95;5.35;;;5.20;99.90;;;;;;1847326;78;21129;-75
2021/12/27 08:07:42;;;;;;;6.53;5.03;;;5.10;99.90;;;;;;1834200;78;21074;-76
2021/12/27 08:10:34;;;;;;;8.45;4.90;;;5.00;99.90;;;;;;1834515;78;21081;-75
2021/12/27 08:13:26;;;;;;;5.12;4.55;;;5.10;99.90;;;;;;1845447;78;21195;-76
2021/12/27 08:16:23;;;;;;;7.25;5.90;;;5.10;99.90;;;;;;1842671;78;21553;-76
2021/12/27 08:19:10;;;;;;;8.28;5.17;;;5.20;99.90;;;;;;1840639;78;21057;-75
2021/12/27 08:22:01;;;;;;;7.33;5.30;;;5.20;99.90;;;;;;1825149;78;21110;-76
2021/12/27 08:24:53;;;;;;;6.85;5.55;;;5.30;99.90;;;;;;1841917;78;21115;-76
2021/12/27 08:27:45;;;;;;;7.33;5.53;;;5.30;99.90;;;;;;1843485;78;21142;-76
2021/12/27 08:30:37;;;;;;;7.33;5.70;;;5.40;99.90;;;;;;1840295;78;21120;-76
2021/12/27 08:33:28;;;;;;;7.25;5.90;;;5.40;99.90;;;;;;1828235;78;21100;-76
2021/12/27 08:36:20;;;;;;;6.15;5.30;;;5.50;99.90;;;;;;1842872;78;21116;-75
2021/12/27 08:39:12;;;;;;;7.42;5.80;;;5.60;99.90;;;;;;1843955;78;21132;-76
2021/12/27 08:42:07;;;;;;;7.47;6.03;;;5.60;99.90;;;;;;1818882;78;21080;-76
2021/12/27 08:44:58;;;;;;;7.80;5.70;;;5.70;99.90;;;;;;1788275;79;21113;-76
2021/12/27 08:47:50;;;;;;;8.15;5.75;;;5.80;99.90;;;;;;1785238;80;21120;-76
2021/12/27 08:50:42;;;;;;;7.58;5.55;;;5.80;99.90;;;;;;1818385;78;21118;-76
2021/12/27 08:53:35;;;;;;;6.53;5.53;;;5.80;99.90;;;;;;1805465;79;21201;-76
2021/12/27 08:56:27;;;;;;;8.38;5.87;;;5.80;99.90;;;;;;1802979;79;21148;-76
2021/12/27 08:59:18;;;;;;;8.30;5.70;;;5.90;99.90;;;;;;1781865;80;21081;-76
2021/12/27 09:02:12;;;;;;;10.10;6.22;;;6.00;99.90;;;;;;1815547;78;21186;-76
2021/12/27 09:05:06;;;;;;;8.90;6.12;;;6.00;99.90;;;;;;1834676;78;21116;-75
2021/12/27 09:08:00;;;;;;;8.95;5.83;;;6.10;99.90;;;;;;1839968;78;21077;-75
2021/12/27 09:10:57;;;;;;;8.28;5.67;;;6.10;99.90;;;;;;1833064;78;21203;-75
2021/12/27 09:13:49;;;;;;;6.80;5.30;;;6.20;99.90;;;;;;1843796;78;21121;-76
2021/12/27 09:16:45;;;;;;;6.70;5.47;;;6.30;99.90;;;;;;1842860;78;21170;-76
2021/12/27 09:19:37;;;;;;;7.33;5.53;;;6.30;99.90;;;;;;1833813;78;21536;-75
2021/12/27 09:22:30;;;;;;;6.95;4.90;;;6.30;99.90;;;;;;1840519;78;21139;-76
2021/12/27 09:25:24;;;;;;;7.17;5.12;;;6.30;99.90;;;;;;1838923;78;21081;-76
2021/12/27 09:28:18;;;;;;;6.83;4.75;;;6.30;99.90;;;;;;1815367;78;21185;-75
2021/12/27 09:31:14;;;;;;;7.40;5.28;;;6.40;99.90;;;;;;1815888;78;21112;-75
2021/12/27 09:34:06;;;;;;;6.87;5.17;;;6.50;99.90;;;;;;1816402;78;21139;-77
2021/12/27 09:36:59;;;;;;;7.05;5.58;;;6.40;99.90;;;;;;1850932;77;21116;-76
2021/12/27 09:39:53;;;;;;;7.00;5.05;;;6.40;99.90;;;;;;1832873;78;21145;-76
2021/12/27 09:42:50;;;;;;;6.72;5.78;;;6.50;99.90;;;;;;1838234;78;21061;-76
2021/12/27 09:45:42;;;;;;;6.65;5.20;;;6.50;99.90;;;;;;1847599;78;21072;-76
2021/12/27 09:48:39;;;;;;;8.20;5.40;;;6.50;99.90;;;;;;1838777;78;21237;-75
2021/12/27 09:51:37;;;;;;;8.25;5.00;;;6.60;99.90;;;;;;1825451;78;21081;-76
2021/12/27 09:54:30;;;;;;;6.97;4.45;;;6.60;99.90;;;;;;1832610;78;21077;-76
2021/12/27 09:57:24;;;;;;;7.80;5.72;;;6.60;99.90;;;;;;1839563;78;21187;-75
2021/12/27 10:00:19;;;;;;;8.25;6.60;;;6.60;99.90;;;;;;1808109;79;21146;-75
2021/12/27 10:03:11;;;;;;;8.45;6.70;;;6.60;99.90;;;;;;1804825;79;21646;-76
2021/12/27 10:06:12;;;;;;;11.03;6.78;;;6.60;99.90;;;;;;1828928;78;21096;-76
2021/12/27 10:09:08;;;;;;;11.20;6.85;;;6.50;99.90;;;;;;1809244;79;21140;-76
2021/12/27 10:12:06;;;;;;;11.55;6.58;;;6.40;99.90;;;;;;1812999;78;21064;-75
2021/12/27 10:15:00;;;;;;;8.95;6.30;;;6.40;99.90;;;;;;1807430;78;21159;-75
2021/12/27 10:17:56;;;;;;;9.18;6.65;;;6.40;99.90;;;;;;1805525;79;21164;-75
2021/12/27 10:20:50;;;;;;;7.28;6.05;;;6.50;99.90;;;;;;1804565;79;21563;-76
2021/12/27 10:23:45;;;;;;;8.70;6.62;;;6.50;99.90;;;;;;1798306;79;21093;-74
2021/12/27 10:26:41;;;;;;;9.58;6.58;;;6.50;99.90;;;;;;1806422;79;21171;-75
2021/12/27 10:29:36;;;;;;;9.60;6.80;;;6.60;99.90;;;;;;1806253;79;21120;-76
2021/12/27 10:32:30;;;;;;;8.73;6.97;;;6.50;99.90;;;;;;1769861;81;21142;-76
2021/12/27 10:35:21;;;;;;;9.75;7.67;;;6.50;99.90;;;;;;1800451;79;21191;-76
2021/12/27 10:38:17;;;;;;;10.38;7.15;;;6.30;99.90;;;;;;1782931;80;21173;-75
2021/12/27 10:41:15;;;;;;;9.10;7.08;;;6.30;99.90;;;;;;1812846;78;21641;-76
2021/12/27 10:44:09;;;;;;;12.18;7.12;;;6.30;99.90;;;;;;1841780;78;21132;-77
2021/12/27 10:47:02;;;;;;;8.65;6.83;;;6.30;99.90;;;;;;1783839;80;21093;-75
2021/12/27 10:50:03;;;;;;;9.35;7.12;;;6.20;99.90;;;;;;1767103;80;21123;-76
2021/12/27 10:53:02;;;;;;;12.43;6.80;;;6.30;99.90;;;;;;1783059;80;21210;-76
2021/12/27 10:55:54;;;;;;;10.78;7.35;;;6.20;99.90;;;;;;1815342;78;21106;-76
2021/12/27 10:58:52;;;;;;;8.73;6.00;;;6.20;99.90;;;;;;1806172;78;21126;-78
2021/12/27 11:01:52;;;;;;;8.30;6.20;;;6.20;99.90;;;;;;1815701;78;21085;-77
2021/12/27 11:04:46;;;;;;;10.23;6.75;;;6.30;99.90;;;;;;1815385;77;21091;-77
2021/12/27 11:07:40;;;;;;;10.60;6.60;;;6.40;99.90;;;;;;1784567;80;21092;-76
2021/12/27 11:10:36;;;;;;;10.55;6.70;;;6.40;99.90;;;;;;1803740;79;21701;-77
2021/12/27 11:13:30;;;;;;;8.58;6.22;;;6.60;99.90;;;;;;1798188;79;21190;-78
2021/12/27 11:16:23;;;;;;;7.55;6.25;;;6.60;99.90;;;;;;1801393;79;21198;-78
2021/12/27 11:19:19;;;;;;;9.68;7.50;;;6.40;99.90;;;;;;1804425;79;21089;-77
2021/12/27 11:22:15;;;;;;;9.55;7.03;;;6.50;99.90;;;;;;1822339;79;21195;-77
2021/12/27 11:25:10;;;;;;;11.20;7.58;;;6.40;99.90;;;;;;1804646;79;21085;-76
2021/12/27 11:28:10;;;;;;;10.43;8.30;;;6.50;99.90;;;;;;1816674;78;21071;-76
2021/12/27 11:31:07;;;;;;;12.80;8.43;;;6.60;99.90;;;;;;1805514;79;21584;-76
2021/12/27 11:34:02;;;;;;;16.80;9.95;;;6.70;99.90;;;;;;1820880;78;21156;-76
2021/12/27 11:36:57;;;;;;;11.97;9.30;;;6.70;99.90;;;;;;1821966;79;21164;-77
2021/12/27 11:39:54;;;;;;;12.63;9.90;;;6.70;99.90;;;;;;1796636;79;21109;-76
2021/12/27 11:42:59;;;;;;;13.13;9.90;;;6.70;99.90;;;;;;1787768;80;21172;-77
2021/12/27 11:45:55;;;;;;;13.80;10.30;;;6.60;99.90;;;;;;1811721;78;21162;-76
2021/12/27 11:48:54;;;;;;;17.20;11.57;;;6.60;99.90;;;;;;1844390;78;21186;-77
2021/12/27 11:51:47;;;;;;;16.65;11.20;;;6.60;99.90;;;;;;1797591;80;21196;-77
2021/12/27 11:54:46;;;;;;;14.50;11.83;;;6.70;99.90;;;;;;1824436;78;21154;-77
2021/12/27 11:57:52;;;;;;;13.43;10.70;;;6.70;99.90;;;;;;1782507;80;21162;-76
2021/12/27 12:00:46;;;;;;;14.20;11.10;;;6.80;99.90;;;;;;1799772;79;21162;-76
2021/12/27 12:04:00;;;;;;;15.35;11.15;;;6.80;99.90;;;;;;1805452;79;21674;-76
2021/12/27 12:06:51;;;;;;;13.08;10.30;;;6.80;99.90;;;;;;1800705;79;21183;-76
2021/12/27 12:09:48;;;;;;;13.03;10.23;;;6.90;99.90;;;;;;1799166;80;21169;-77
2021/12/27 12:12:41;;;;;;;14.40;9.88;;;6.90;99.90;;;;;;1777512;80;21201;-77
2021/12/27 12:15:36;;;;;;;11.88;9.18;;;6.90;99.90;;;;;;1795473;80;21121;-78
2021/12/27 12:18:29;;;;;;;14.07;10.43;;;7.00;99.90;;;;;;1819181;79;21198;-77
2021/12/27 12:21:48;;;;;;;12.75;10.00;;;7.10;99.90;;;;;;1808623;79;21084;-76
2021/12/27 12:24:38;;;;;;;13.70;10.10;;;7.10;99.90;;;;;;1786466;80;21090;-76
2021/12/27 12:27:31;;;;;;;13.08;10.30;;;7.10;99.90;;;;;;1798447;80;21128;-76
2021/12/27 12:30:28;;;;;;;15.98;10.70;;;7.20;99.90;;;;;;1781049;80;21101;-77
2021/12/27 12:33:23;;;;;;;17.60;11.25;;;7.20;99.90;;;;;;1770523;81;21213;-77
2021/12/27 12:36:15;;;;;;;14.38;11.40;;;7.20;99.90;;;;;;1795823;80;21138;-77
2021/12/27 12:39:07;;;;;;;14.73;10.95;;;7.30;99.90;;;;;;1769557;80;21551;-77
2021/12/27 12:42:17;;;;;;;14.03;10.48;;;7.30;99.90;;;;;;1792558;80;22176;-77
2021/12/27 12:45:17;;;;;;;17.32;11.65;;;7.30;99.90;;;;;;1796520;80;21474;-76
2021/12/27 12:48:10;;;;;;;15.35;10.53;;;7.30;99.90;;;;;;1798840;80;21139;-76
2021/12/27 12:51:06;;;;;;;13.98;11.22;;;7.30;99.90;;;;;;1792880;80;21102;-76
2021/12/27 12:54:02;;;;;;;16.93;11.63;;;7.30;99.90;;;;;;1796256;80;21362;-77
2021/12/27 12:57:02;;;;;;;16.32;12.58;;;7.30;99.90;;;;;;1772620;80;21081;-77
2021/12/27 12:59:58;;;;;;;14.93;11.90;;;7.30;99.90;;;;;;1792898;80;21167;-77
2021/12/27 13:02:53;;;;;;;14.90;12.43;;;7.40;99.90;;;;;;1795798;80;21092;-76
2021/12/27 13:05:58;;;;;;;17.70;13.32;;;7.40;99.90;;;;;;1798820;80;21092;-76
2021/12/27 13:12:11;;;;;;;14.07;10.90;;;7.40;99.90;;;;;;1794317;80;21096;-77
2021/12/27 13:15:13;;;;;;;14.35;10.88;;;7.40;99.90;;;;;;1795912;80;21738;-77
2021/12/27 13:18:25;;;;;;;14.98;11.15;;;7.50;99.90;;;;;;1794068;80;21140;-76
2021/12/27 13:21:21;;;;;;;17.15;12.50;;;7.50;99.90;;;;;;1794210;80;21179;-76
2021/12/27 13:24:13;;;;;;;17.23;12.07;;;7.60;99.90;;;;;;1796393;80;21520;-77
2021/12/27 13:27:14;;;;;;;15.28;11.80;;;7.60;99.90;;;;;;1796215;80;21179;-77
2021/12/27 13:30:28;;;;;;;18.77;12.73;;;7.60;99.90;;;;;;1792950;80;21089;-77
2021/12/27 13:33:23;;;;;;;14.45;11.05;;;7.60;99.90;;;;;;1770586;81;21191;-77
2021/12/27 13:36:17;;;;;;;12.75;10.18;;;7.60;99.90;;;;;;1790099;80;21208;-77
2021/12/27 13:39:15;;;;;;;12.37;9.25;;;7.60;99.90;;;;;;1767680;80;21092;-77
2021/12/27 13:42:13;;;;;;;10.28;9.00;;;7.60;99.90;;;;;;1777554;81;21083;-77
2021/12/27 13:45:14;;;;;;;12.00;8.33;;;7.70;99.90;;;;;;1797101;80;21179;-77
2021/12/27 13:48:07;;;;;;;13.05;8.83;;;7.70;99.90;;;;;;1780411;80;21090;-77
2021/12/27 13:51:00;;;;;;;10.15;6.58;;;7.80;99.90;;;;;;1798602;80;21148;-76
2021/12/27 13:53:56;;;;;;;9.58;6.95;;;7.80;99.90;;;;;;1798753;80;21116;-76
2021/12/27 13:57:28;;;;;;;10.80;7.60;;;7.90;99.90;;;;;;1814868;79;21176;-76
2021/12/27 14:00:31;;;;;;;8.50;6.45;;;8.00;99.90;;;;;;1792947;80;21136;-78
2021/12/27 14:03:33;;;;;;;9.53;6.58;;;8.00;99.90;;;;;;1797573;80;21243;-76
2021/12/27 14:06:25;;;;;;;9.40;6.60;;;8.10;99.90;;;;;;1798269;80;21150;-77
2021/12/27 14:09:24;;;;;;;10.53;6.25;;;8.10;99.90;;;;;;1799098;79;21171;-77
2021/12/27 14:12:22;;;;;;;10.98;7.75;;;8.20;99.90;;;;;;1804309;79;21081;-76
2021/12/27 14:15:17;;;;;;;10.00;7.62;;;8.20;99.90;;;;;;1811729;79;21194;-76
2021/12/27 14:18:16;;;;;;;9.20;7.20;;;8.20;99.90;;;;;;1778948;80;21087;-77
2021/12/27 14:21:10;;;;;;;11.70;8.40;;;8.20;99.90;;;;;;1815407;79;21141;-76
2021/12/27 14:24:06;;;;;;;13.95;8.40;;;8.20;99.90;;;;;;1798636;80;21687;-78
2021/12/27 14:27:24;;;;;;;12.90;8.75;;;8.30;99.90;;;;;;1779409;80;21132;-76
2021/12/27 14:30:29;;;;;;;12.15;9.33;;;8.30;99.90;;;;;;1781834;80;21101;-76
2021/12/27 14:33:24;;;;;;;13.18;9.45;;;8.30;99.90;;;;;;1795432;79;21641;-76
2021/12/27 14:36:15;;;;;;;10.88;8.68;;;8.30;99.90;;;;;;1821024;78;21077;-77
2021/12/27 14:39:06;;;;;;;11.93;9.20;;;8.30;99.90;;;;;;1812728;79;21155;-77
2021/12/27 14:41:58;;;;;;;12.40;9.80;;;8.30;99.90;;;;;;1821423;79;21155;-77
2021/12/27 14:44:52;;;;;;;11.15;9.55;;;8.30;99.90;;;;;;1817648;79;21153;-78
2021/12/27 14:47:45;;;;;;;12.05;9.10;;;8.40;99.90;;;;;;1798619;80;21200;-77
2021/12/27 14:50:37;;;;;;;11.20;8.63;;;8.40;99.90;;;;;;1815273;79;21234;-77
2021/12/27 14:53:29;;;;;;;10.08;8.18;;;8.50;99.90;;;;;;1798602;80;21770;-77
2021/12/27 14:56:22;;;;;;;11.55;8.45;;;8.50;99.90;;;;;;1799393;80;21150;-76
2021/12/27 14:59:14;;;;;;;10.08;7.60;;;8.50;99.90;;;;;;1778341;80;21180;-77
2021/12/27 15:02:10;;;;;;;11.22;8.43;;;8.50;99.90;;;;;;1798272;80;21088;-76
2021/12/27 15:05:01;;;;;;;11.40;8.18;;;8.40;99.90;;;;;;1798868;80;21147;-77
2021/12/27 15:07:53;;;;;;;13.55;9.55;;;8.40;99.90;;;;;;1789114;79;21175;-78
2021/12/27 15:10:46;;;;;;;13.43;8.70;;;8.40;99.90;;;;;;1798140;79;21117;-78
2021/12/27 15:13:38;;;;;;;10.88;8.10;;;8.40;99.90;;;;;;1813184;78;21068;-77
2021/12/27 15:16:30;;;;;;;12.25;8.95;;;8.40;99.90;;;;;;1808968;78;21142;-76